sensor_id;sensor_type;location;lat;lon;timestamp;pressure;altitude;pressure_sealevel;temperature;humidity
7170;BME280;3626;42.656;23.312;2022-12-08T00:00:02;94380.47;;;2.45;100.00
7170;BME280;3626;42.656;23.312;2022-12-08T00:00:09;94387.31;;;2.45;100.00
7170;BME280;3626;42.656;23.312;2022-12-08T00:00:15;94382.22;;;2.45;100.00
7170;BME280;3626;42.656;23.312;2022-12-08T00:00:21;94389.84;;;2.45;100.00
7170;BME280;3626;42.656;23.312;2022-12-08T00:00:27;94388.13;;;2.45;100.00
7170;BME280;3626;42.656;23.312;2022-12-08T00:00:33;94388.13;;;2.45;100.00
7170;BME280;3626;42.656;23.312;2022-12-08T00:00:39;94386.38;;;2.46;100.00
7170;BME280;3626;42.656;23.312;2022-12-08T00:00:45;94385.56;;;2.45;100.00
7170;BME280;3626;42.656;23.312;2022-12-08T00:00:51;94394.84;;;2.46;100.00
7170;BME280;3626;42.656;23.312;2022-12-08T00:01:03;94386.28;;;2.47;100.00
7170;BME280;3626;42.656;23.312;2022-12-08T00:01:10;94386.28;;;2.47;100.00
7170;BME280;3626;42.656;23.312;2022-12-08T00:01:18;94392.03;;;2.49;100.00
7170;BME280;3626;42.656;23.312;2022-12-08T00:01:26;94388.81;;;2.47;100.00
7170;BME280;3626;42.656;23.312;2022-12-08T00:01:33;94390.56;;;2.47;100.00
7170;BME280;3626;42.656;23.312;2022-12-08T00:01:39;94394.72;;;2.48;100.00
7170;BME280;3626;42.656;23.312;2022-12-08T00:01:45;94391.38;;;2.47;100.00
7170;BME280;3626;42.656;23.312;2022-12-08T00:01:51;94390.56;;;2.47;100.00
7170;BME280;3626;42.656;23.312;2022-12-08T00:01:57;94384.75;;;2.45;100.00
7170;BME280;3626;42.656;23.312;2022-12-08T00:02:03;94387.31;;;2.45;100.00
7170;BME280;3626;42.656;23.312;2022-12-08T00:02:08;94388.25;;;2.44;100.00
7170;BME280;3626;42.656;23.312;2022-12-08T00:02:14;94391.59;;;2.44;100.00
7170;BME280;3626;42.656;23.312;2022-12-08T00:02:20;94390.78;;;2.44;100.00
7170;BME280;3626;42.656;23.312;2022-12-08T00:02:25;94390.94;;;2.42;100.00
7170;BME280;3626;42.656;23.312;2022-12-08T00:02:31;94398.56;;;2.42;100.00
7170;BME280;3626;42.656;23.312;2022-12-08T00:02:37;94391.03;;;2.41;100.00
7170;BME280;3626;42.656;23.312;2022-12-08T00:02:43;94390.22;;;2.40;100.00
7170;BME280;3626;42.656;23.312;2022-12-08T00:02:48;94391.03;;;2.41;100.00
7170;BME280;3626;42.656;23.312;2022-12-08T00:02:54;94391.84;;;2.41;100.00
7170;BME280;3626;42.656;23.312;2022-12-08T00:03:00;94395.31;;;2.40;100.00
7170;BME280;3626;42.656;23.312;2022-12-08T00:03:05;94392.78;;;2.40;100.00
7170;BME280;3626;42.656;23.312;2022-12-08T00:03:11;94392.78;;;2.40;100.00
7170;BME280;3626;42.656;23.312;2022-12-08T00:03:17;94392.91;;;2.39;100.00
7170;BME280;3626;42.656;23.312;2022-12-08T00:03:24;94390.22;;;2.40;100.00
7170;BME280;3626;42.656;23.312;2022-12-08T00:03:29;94393.72;;;2.39;100.00
7170;BME280;3626;42.656;23.312;2022-12-08T00:03:36;94394.50;;;2.40;100.00
7170;BME280;3626;42.656;23.312;2022-12-08T00:03:42;94391.84;;;2.41;100.00
7170;BME280;3626;42.656;23.312;2022-12-08T00:03:47;94396.13;;;2.41;100.00
7170;BME280;3626;42.656;23.312;2022-12-08T00:03:54;94398.66;;;2.41;100.00
7170;BME280;3626;42.656;23.312;2022-12-08T00:04:01;94397.88;;;2.40;100.00
7170;BME280;3626;42.656;23.312;2022-12-08T00:04:08;94396.13;;;2.41;100.00
7170;BME280;3626;42.656;23.312;2022-12-08T00:04:14;94396.94;;;2.41;100.00
7170;BME280;3626;42.656;23.312;2022-12-08T00:04:20;94395.19;;;2.42;100.00
7170;BME280;3626;42.656;23.312;2022-12-08T00:04:26;94396.94;;;2.41;100.00
7170;BME280;3626;42.656;23.312;2022-12-08T00:04:32;94397.72;;;2.42;100.00
7170;BME280;3626;42.656;23.312;2022-12-08T00:04:58;94393.47;;;2.42;100.00
7170;BME280;3626;42.656;23.312;2022-12-08T00:05:21;94392.63;;;2.42;100.00
7170;BME280;3626;42.656;23.312;2022-12-08T00:05:47;94400.19;;;2.43;100.00
7170;BME280;3626;42.656;23.312;2022-12-08T00:06:22;94394.38;;;2.41;100.00
7170;BME280;3626;42.656;23.312;2022-12-08T00:06:46;94393.00;;;2.37;100.00
7170;BME280;3626;42.656;23.312;2022-12-08T00:07:10;94393.28;;;2.34;100.00
7170;BME280;3626;42.656;23.312;2022-12-08T00:07:37;94394.19;;;2.33;100.00
7170;BME280;3626;42.656;23.312;2022-12-08T00:08:03;94393.38;;;2.33;100.00
7170;BME280;3626;42.656;23.312;2022-12-08T00:08:27;94401.72;;;2.35;100.00
7170;BME280;3626;42.656;23.312;2022-12-08T00:08:51;94402.19;;;2.29;100.00
7170;BME280;3626;42.656;23.312;2022-12-08T00:09:18;94405.09;;;2.24;100.00
7170;BME280;3626;42.656;23.312;2022-12-08T00:09:30;94403.63;;;2.21;100.00
7170;BME280;3626;42.656;23.312;2022-12-08T00:09:38;94406.28;;;2.20;100.00
7170;BME280;3626;42.656;23.312;2022-12-08T00:09:43;94402.91;;;2.19;100.00
7170;BME280;3626;42.656;23.312;2022-12-08T00:09:49;94412.44;;;2.17;100.00
7170;BME280;3626;42.656;23.312;2022-12-08T00:09:55;94401.53;;;2.15;100.00
7170;BME280;3626;42.656;23.312;2022-12-08T00:10:01;94414.16;;;2.17;100.00
7170;BME280;3626;42.656;23.312;2022-12-08T00:10:07;94403.16;;;2.16;100.00
7170;BME280;3626;42.656;23.312;2022-12-08T00:10:13;94398.91;;;2.17;100.00
7170;BME280;3626;42.656;23.312;2022-12-08T00:10:19;94398.06;;;2.16;100.00
7170;BME280;3626;42.656;23.312;2022-12-08T00:10:24;94408.16;;;2.18;100.00
7170;BME280;3626;42.656;23.312;2022-12-08T00:10:31;94407.34;;;2.17;100.00
7170;BME280;3626;42.656;23.312;2022-12-08T00:10:37;94407.34;;;2.17;100.00
7170;BME280;3626;42.656;23.312;2022-12-08T00:10:43;94403.84;;;2.18;100.00
7170;BME280;3626;42.656;23.312;2022-12-08T00:10:49;94399.56;;;2.19;100.00
7170;BME280;3626;42.656;23.312;2022-12-08T00:10:54;94408.81;;;2.20;100.00
7170;BME280;3626;42.656;23.312;2022-12-08T00:11:00;94410.47;;;2.21;100.00
7170;BME280;3626;42.656;23.312;2022-12-08T00:11:11;94404.53;;;2.20;100.00
7170;BME280;3626;42.656;23.312;2022-12-08T00:11:17;94409.63;;;2.20;100.00
7170;BME280;3626;42.656;23.312;2022-12-08T00:11:23;94412.16;;;2.20;100.00
7170;BME280;3626;42.656;23.312;2022-12-08T00:11:28;94410.47;;;2.21;100.00
7170;BME280;3626;42.656;23.312;2022-12-08T00:11:35;94412.88;;;2.22;100.00
7170;BME280;3626;42.656;23.312;2022-12-08T00:11:40;94406.03;;;2.23;100.00
7170;BME280;3626;42.656;23.312;2022-12-08T00:11:46;94410.31;;;2.22;100.00
7170;BME280;3626;42.656;23.312;2022-12-08T00:11:57;94399.34;;;2.22;100.00
7170;BME280;3626;42.656;23.312;2022-12-08T00:12:06;94412.88;;;2.22;100.00
7170;BME280;3626;42.656;23.312;2022-12-08T00:12:13;94407.78;;;2.22;100.00
7170;BME280;3626;42.656;23.312;2022-12-08T00:12:19;94412.88;;;2.22;100.00
7170;BME280;3626;42.656;23.312;2022-12-08T00:12:25;94410.31;;;2.22;100.00
7170;BME280;3626;42.656;23.312;2022-12-08T00:12:30;94407.78;;;2.22;100.00
7170;BME280;3626;42.656;23.312;2022-12-08T00:12:36;94411.00;;;2.24;100.00
7170;BME280;3626;42.656;23.312;2022-12-08T00:12:42;94406.72;;;2.25;100.00
7170;BME280;3626;42.656;23.312;2022-12-08T00:12:48;94407.53;;;2.25;100.00
7170;BME280;3626;42.656;23.312;2022-12-08T00:12:53;94409.25;;;2.25;100.00
7170;BME280;3626;42.656;23.312;2022-12-08T00:12:59;94406.03;;;2.23;100.00
7170;BME280;3626;42.656;23.312;2022-12-08T00:13:05;94410.31;;;2.22;100.00
7170;BME280;3626;42.656;23.312;2022-12-08T00:13:10;94411.13;;;2.23;100.00
7170;BME280;3626;42.656;23.312;2022-12-08T00:13:16;94410.31;;;2.22;100.00
7170;BME280;3626;42.656;23.312;2022-12-08T00:13:22;94413.69;;;2.23;100.00
7170;BME280;3626;42.656;23.312;2022-12-08T00:13:28;94408.72;;;2.21;100.00
7170;BME280;3626;42.656;23.312;2022-12-08T00:13:34;94408.72;;;2.21;100.00
7170;BME280;3626;42.656;23.312;2022-12-08T00:13:40;94411.25;;;2.21;100.00
7170;BME280;3626;42.656;23.312;2022-12-08T00:13:46;94410.47;;;2.21;100.00
7170;BME280;3626;42.656;23.312;2022-12-08T00:13:52;94410.47;;;2.21;100.00
7170;BME280;3626;42.656;23.312;2022-12-08T00:13:57;94414.59;;;2.22;100.00
7170;BME280;3626;42.656;23.312;2022-12-08T00:14:03;94413.00;;;2.21;100.00
7170;BME280;3626;42.656;23.312;2022-12-08T00:14:09;94410.47;;;2.21;100.00
7170;BME280;3626;42.656;23.312;2022-12-08T00:14:14;94413.09;;;2.19;100.00
7170;BME280;3626;42.656;23.312;2022-12-08T00:14:23;94416.59;;;2.18;100.00
7170;BME280;3626;42.656;23.312;2022-12-08T00:14:31;94413.22;;;2.18;100.00
7170;BME280;3626;42.656;23.312;2022-12-08T00:14:40;94409.97;;;2.16;100.00
7170;BME280;3626;42.656;23.312;2022-12-08T00:14:46;94412.44;;;2.17;100.00
7170;BME280;3626;42.656;23.312;2022-12-08T00:14:54;94415.78;;;2.18;100.00
7170;BME280;3626;42.656;23.312;2022-12-08T00:14:59;94409.88;;;2.17;100.00
7170;BME280;3626;42.656;23.312;2022-12-08T00:15:06;94416.72;;;2.17;100.00
7170;BME280;3626;42.656;23.312;2022-12-08T00:15:11;94416.59;;;2.18;100.00
7170;BME280;3626;42.656;23.312;2022-12-08T00:15:17;94412.28;;;2.19;100.00
7170;BME280;3626;42.656;23.312;2022-12-08T00:15:23;94407.34;;;2.17;100.00
7170;BME280;3626;42.656;23.312;2022-12-08T00:15:28;94414.03;;;2.18;100.00
7170;BME280;3626;42.656;23.312;2022-12-08T00:15:34;94417.38;;;2.19;100.00
7170;BME280;3626;42.656;23.312;2022-12-08T00:15:40;94415.78;;;2.18;100.00
7170;BME280;3626;42.656;23.312;2022-12-08T00:15:46;94417.38;;;2.19;100.00
7170;BME280;3626;42.656;23.312;2022-12-08T00:15:51;94418.19;;;2.19;100.00
7170;BME280;3626;42.656;23.312;2022-12-08T00:15:59;94413.09;;;2.19;100.00
7170;BME280;3626;42.656;23.312;2022-12-08T00:16:05;94409.63;;;2.20;100.00
7170;BME280;3626;42.656;23.312;2022-12-08T00:16:11;94411.34;;;2.20;100.00
7170;BME280;3626;42.656;23.312;2022-12-08T00:16:17;94414.03;;;2.18;100.00
7170;BME280;3626;42.656;23.312;2022-12-08T00:16:22;94416.59;;;2.18;100.00
7170;BME280;3626;42.656;23.312;2022-12-08T00:16:28;94414.97;;;2.17;100.00
7170;BME280;3626;42.656;23.312;2022-12-08T00:16:34;94420.88;;;2.18;100.00
7170;BME280;3626;42.656;23.312;2022-12-08T00:16:40;94414.84;;;2.19;100.00
7170;BME280;3626;42.656;23.312;2022-12-08T00:16:46;94417.25;;;2.20;100.00
7170;BME280;3626;42.656;23.312;2022-12-08T00:16:52;94413.00;;;2.21;100.00
7170;BME280;3626;42.656;23.312;2022-12-08T00:16:58;94420.63;;;2.21;100.00
7170;BME280;3626;42.656;23.312;2022-12-08T00:17:06;94414.59;;;2.22;100.00
7170;BME280;3626;42.656;23.312;2022-12-08T00:17:13;94423.06;;;2.22;100.00
7170;BME280;3626;42.656;23.312;2022-12-08T00:17:19;94423.19;;;2.21;100.00
7170;BME280;3626;42.656;23.312;2022-12-08T00:17:25;94415.56;;;2.21;100.00
7170;BME280;3626;42.656;23.312;2022-12-08T00:17:31;94418.09;;;2.21;100.00
7170;BME280;3626;42.656;23.312;2022-12-08T00:17:36;94419.81;;;2.20;100.00
7170;BME280;3626;42.656;23.312;2022-12-08T00:17:42;94419.81;;;2.20;100.00
7170;BME280;3626;42.656;23.312;2022-12-08T00:17:48;94424.91;;;2.20;100.00
7170;BME280;3626;42.656;23.312;2022-12-08T00:17:53;94417.25;;;2.20;100.00
7170;BME280;3626;42.656;23.312;2022-12-08T00:17:59;94421.44;;;2.21;100.00
7170;BME280;3626;42.656;23.312;2022-12-08T00:18:06;94428.16;;;2.22;100.00
7170;BME280;3626;42.656;23.312;2022-12-08T00:18:12;94421.31;;;2.23;100.00
7170;BME280;3626;42.656;23.312;2022-12-08T00:18:18;94421.31;;;2.23;100.00
7170;BME280;3626;42.656;23.312;2022-12-08T00:18:23;94418.75;;;2.23;100.00
7170;BME280;3626;42.656;23.312;2022-12-08T00:18:29;94428.94;;;2.23;100.00
7170;BME280;3626;42.656;23.312;2022-12-08T00:18:35;94422.25;;;2.22;100.00
7170;BME280;3626;42.656;23.312;2022-12-08T00:18:41;94423.06;;;2.22;100.00
7170;BME280;3626;42.656;23.312;2022-12-08T00:18:46;94431.50;;;2.23;100.00
7170;BME280;3626;42.656;23.312;2022-12-08T00:18:52;94431.50;;;2.23;100.00
7170;BME280;3626;42.656;23.312;2022-12-08T00:18:58;94429.75;;;2.23;100.00
7170;BME280;3626;42.656;23.312;2022-12-08T00:19:03;94431.50;;;2.23;100.00
7170;BME280;3626;42.656;23.312;2022-12-08T00:19:09;94428.16;;;2.22;100.00
7170;BME280;3626;42.656;23.312;2022-12-08T00:19:15;94428.00;;;2.24;100.00
7170;BME280;3626;42.656;23.312;2022-12-08T00:19:21;94426.41;;;2.23;100.00
7170;BME280;3626;42.656;23.312;2022-12-08T00:19:29;94433.38;;;2.21;100.00
7170;BME280;3626;42.656;23.312;2022-12-08T00:19:35;94429.88;;;2.22;100.00
7170;BME280;3626;42.656;23.312;2022-12-08T00:19:41;94433.25;;;2.22;100.00
7170;BME280;3626;42.656;23.312;2022-12-08T00:19:47;94431.63;;;2.21;100.00
7170;BME280;3626;42.656;23.312;2022-12-08T00:19:54;94431.63;;;2.21;100.00
7170;BME280;3626;42.656;23.312;2022-12-08T00:20:00;94431.63;;;2.21;100.00
7170;BME280;3626;42.656;23.312;2022-12-08T00:20:07;94431.63;;;2.21;100.00
7170;BME280;3626;42.656;23.312;2022-12-08T00:20:12;94436.72;;;2.21;100.00
7170;BME280;3626;42.656;23.312;2022-12-08T00:20:18;94435.78;;;2.22;100.00
7170;BME280;3626;42.656;23.312;2022-12-08T00:20:24;94434.03;;;2.23;100.00
7170;BME280;3626;42.656;23.312;2022-12-08T00:20:29;94434.03;;;2.23;100.00
7170;BME280;3626;42.656;23.312;2022-12-08T00:20:35;94435.66;;;2.24;100.00
7170;BME280;3626;42.656;23.312;2022-12-08T00:20:41;94433.00;;;2.25;100.00
7170;BME280;3626;42.656;23.312;2022-12-08T00:20:53;94433.81;;;2.26;100.00
7170;BME280;3626;42.656;23.312;2022-12-08T00:20:59;94433.81;;;2.26;100.00
7170;BME280;3626;42.656;23.312;2022-12-08T00:21:05;94435.41;;;2.27;100.00
7170;BME280;3626;42.656;23.312;2022-12-08T00:21:11;94438.63;;;2.29;100.00
7170;BME280;3626;42.656;23.312;2022-12-08T00:21:18;94434.47;;;2.28;100.00
7170;BME280;3626;42.656;23.312;2022-12-08T00:21:24;94442.81;;;2.30;100.00
7170;BME280;3626;42.656;23.312;2022-12-08T00:21:29;94432.66;;;2.30;100.00
7170;BME280;3626;42.656;23.312;2022-12-08T00:21:35;94438.41;;;2.32;100.00
7170;BME280;3626;42.656;23.312;2022-12-08T00:21:41;94437.59;;;2.32;100.00
7170;BME280;3626;42.656;23.312;2022-12-08T00:21:46;94445.09;;;2.33;100.00
7170;BME280;3626;42.656;23.312;2022-12-08T00:21:52;94444.22;;;2.34;100.00
7170;BME280;3626;42.656;23.312;2022-12-08T00:21:58;94442.47;;;2.35;100.00
7170;BME280;3626;42.656;23.312;2022-12-08T00:22:05;94434.69;;;2.36;100.00
7170;BME280;3626;42.656;23.312;2022-12-08T00:22:11;94439.78;;;2.36;100.00
7170;BME280;3626;42.656;23.312;2022-12-08T00:22:17;94431.22;;;2.37;100.00
7170;BME280;3626;42.656;23.312;2022-12-08T00:22:23;94440.50;;;2.38;100.00
7170;BME280;3626;42.656;23.312;2022-12-08T00:22:28;94430.31;;;2.38;100.00
7170;BME280;3626;42.656;23.312;2022-12-08T00:22:36;94441.16;;;2.40;100.00
7170;BME280;3626;42.656;23.312;2022-12-08T00:22:43;94441.16;;;2.40;100.00
7170;BME280;3626;42.656;23.312;2022-12-08T00:22:49;94436.06;;;2.40;100.00
7170;BME280;3626;42.656;23.312;2022-12-08T00:22:54;94435.13;;;2.41;100.00
7170;BME280;3626;42.656;23.312;2022-12-08T00:23:00;94432.59;;;2.41;100.00
7170;BME280;3626;42.656;23.312;2022-12-08T00:23:07;94431.69;;;2.42;100.00
7170;BME280;3626;42.656;23.312;2022-12-08T00:23:13;94433.38;;;2.42;100.00
7170;BME280;3626;42.656;23.312;2022-12-08T00:23:18;94434.22;;;2.42;100.00
7170;BME280;3626;42.656;23.312;2022-12-08T00:23:24;94433.28;;;2.43;100.00
7170;BME280;3626;42.656;23.312;2022-12-08T00:23:30;94435.03;;;2.43;100.00
7170;BME280;3626;42.656;23.312;2022-12-08T00:23:36;94439.19;;;2.44;100.00
7170;BME280;3626;42.656;23.312;2022-12-08T00:23:42;94436.63;;;2.44;100.00
7170;BME280;3626;42.656;23.312;2022-12-08T00:23:47;94434.91;;;2.44;100.00
7170;BME280;3626;42.656;23.312;2022-12-08T00:23:53;94429.00;;;2.44;100.00
7170;BME280;3626;42.656;23.312;2022-12-08T00:23:59;94431.53;;;2.44;100.00
7170;BME280;3626;42.656;23.312;2022-12-08T00:24:05;94434.91;;;2.44;100.00
7170;BME280;3626;42.656;23.312;2022-12-08T00:24:12;94434.22;;;2.42;100.00
7170;BME280;3626;42.656;23.312;2022-12-08T00:24:18;94436.88;;;2.41;100.00
7170;BME280;3626;42.656;23.312;2022-12-08T00:24:29;94429.47;;;2.38;100.00
7170;BME280;3626;42.656;23.312;2022-12-08T00:24:37;94429.59;;;2.36;100.00
7170;BME280;3626;42.656;23.312;2022-12-08T00:24:43;94432.94;;;2.37;100.00
7170;BME280;3626;42.656;23.312;2022-12-08T00:24:50;94436.31;;;2.37;100.00
7170;BME280;3626;42.656;23.312;2022-12-08T00:24:56;94426.13;;;2.37;100.00
7170;BME280;3626;42.656;23.312;2022-12-08T00:25:02;94432.84;;;2.38;100.00
7170;BME280;3626;42.656;23.312;2022-12-08T00:25:08;94427.06;;;2.36;100.00
7170;BME280;3626;42.656;23.312;2022-12-08T00:25:14;94439.13;;;2.34;100.00
7170;BME280;3626;42.656;23.312;2022-12-08T00:25:20;94429.16;;;2.31;100.00
7170;BME280;3626;42.656;23.312;2022-12-08T00:25:26;94436.00;;;2.31;100.00
7170;BME280;3626;42.656;23.312;2022-12-08T00:25:34;94432.50;;;2.32;100.00
7170;BME280;3626;42.656;23.312;2022-12-08T00:25:40;94435.88;;;2.32;100.00
7170;BME280;3626;42.656;23.312;2022-12-08T00:25:45;94429.03;;;2.33;100.00
7170;BME280;3626;42.656;23.312;2022-12-08T00:25:51;94431.47;;;2.34;100.00
7170;BME280;3626;42.656;23.312;2022-12-08T00:26:01;94431.47;;;2.34;100.00
7170;BME280;3626;42.656;23.312;2022-12-08T00:26:07;94428.00;;;2.35;100.00
7170;BME280;3626;42.656;23.312;2022-12-08T00:26:12;94426.25;;;2.36;100.00
7170;BME280;3626;42.656;23.312;2022-12-08T00:26:18;94423.69;;;2.36;100.00
7170;BME280;3626;42.656;23.312;2022-12-08T00:26:24;94432.16;;;2.36;100.00
7170;BME280;3626;42.656;23.312;2022-12-08T00:26:30;94428.78;;;2.36;100.00
7170;BME280;3626;42.656;23.312;2022-12-08T00:26:35;94427.06;;;2.36;100.00
7170;BME280;3626;42.656;23.312;2022-12-08T00:26:42;94427.84;;;2.37;100.00
7170;BME280;3626;42.656;23.312;2022-12-08T00:26:48;94429.59;;;2.36;100.00
7170;BME280;3626;42.656;23.312;2022-12-08T00:26:54;94430.41;;;2.37;100.00
7170;BME280;3626;42.656;23.312;2022-12-08T00:27:00;94430.31;;;2.38;100.00
7170;BME280;3626;42.656;23.312;2022-12-08T00:27:07;94426.00;;;2.39;100.00
7170;BME280;3626;42.656;23.312;2022-12-08T00:27:14;94432.72;;;2.40;100.00
7170;BME280;3626;42.656;23.312;2022-12-08T00:27:20;94428.28;;;2.42;100.00
7170;BME280;3626;42.656;23.312;2022-12-08T00:27:26;94429.13;;;2.42;100.00
7170;BME280;3626;42.656;23.312;2022-12-08T00:27:31;94434.09;;;2.44;100.00
7170;BME280;3626;42.656;23.312;2022-12-08T00:27:37;94434.09;;;2.44;100.00
7170;BME280;3626;42.656;23.312;2022-12-08T00:27:43;94426.59;;;2.42;100.00
7170;BME280;3626;42.656;23.312;2022-12-08T00:27:48;94427.38;;;2.43;100.00
7170;BME280;3626;42.656;23.312;2022-12-08T00:27:54;94427.38;;;2.43;100.00
7170;BME280;3626;42.656;23.312;2022-12-08T00:28:00;94424.84;;;2.43;100.00
7170;BME280;3626;42.656;23.312;2022-12-08T00:28:05;94429.00;;;2.44;100.00
7170;BME280;3626;42.656;23.312;2022-12-08T00:28:11;94427.25;;;2.44;100.00
7170;BME280;3626;42.656;23.312;2022-12-08T00:28:18;94429.81;;;2.44;100.00
7170;BME280;3626;42.656;23.312;2022-12-08T00:28:23;94420.41;;;2.45;100.00
7170;BME280;3626;42.656;23.312;2022-12-08T00:28:30;94432.34;;;2.44;100.00
7170;BME280;3626;42.656;23.312;2022-12-08T00:28:36;94428.88;;;2.45;100.00
7170;BME280;3626;42.656;23.312;2022-12-08T00:28:41;94425.66;;;2.43;100.00
7170;BME280;3626;42.656;23.312;2022-12-08T00:28:47;94423.91;;;2.44;100.00
7170;BME280;3626;42.656;23.312;2022-12-08T00:28:53;94431.53;;;2.44;100.00
7170;BME280;3626;42.656;23.312;2022-12-08T00:28:59;94428.28;;;2.42;100.00
7170;BME280;3626;42.656;23.312;2022-12-08T00:29:04;94429.13;;;2.42;100.00
7170;BME280;3626;42.656;23.312;2022-12-08T00:29:11;94429.13;;;2.42;100.00
7170;BME280;3626;42.656;23.312;2022-12-08T00:29:17;94426.44;;;2.44;100.00
7170;BME280;3626;42.656;23.312;2022-12-08T00:29:23;94425.66;;;2.43;100.00
7170;BME280;3626;42.656;23.312;2022-12-08T00:29:29;94422.16;;;2.44;100.00
7170;BME280;3626;42.656;23.312;2022-12-08T00:29:34;94434.91;;;2.44;100.00
7170;BME280;3626;42.656;23.312;2022-12-08T00:29:42;94430.50;;;2.46;100.00
7170;BME280;3626;42.656;23.312;2022-12-08T00:29:48;94427.13;;;2.46;100.00
7170;BME280;3626;42.656;23.312;2022-12-08T00:29:53;94420.41;;;2.45;100.00
7170;BME280;3626;42.656;23.312;2022-12-08T00:29:59;94424.56;;;2.46;100.00
7170;BME280;3626;42.656;23.312;2022-12-08T00:30:06;94427.03;;;2.47;100.00
7170;BME280;3626;42.656;23.312;2022-12-08T00:30:12;94421.94;;;2.47;100.00
7170;BME280;3626;42.656;23.312;2022-12-08T00:30:17;94427.81;;;2.48;100.00
7170;BME280;3626;42.656;23.312;2022-12-08T00:30:23;94430.25;;;2.49;100.00
7170;BME280;3626;42.656;23.312;2022-12-08T00:30:29;94426.75;;;2.50;100.00
7170;BME280;3626;42.656;23.312;2022-12-08T00:30:38;94425.94;;;2.50;100.00
7170;BME280;3626;42.656;23.312;2022-12-08T00:30:44;94430.94;;;2.52;100.00
7170;BME280;3626;42.656;23.312;2022-12-08T00:30:50;94426.75;;;2.50;100.00
7170;BME280;3626;42.656;23.312;2022-12-08T00:30:56;94425.03;;;2.51;100.00
7170;BME280;3626;42.656;23.312;2022-12-08T00:31:06;94422.50;;;2.51;100.00
7170;BME280;3626;42.656;23.312;2022-12-08T00:31:12;94430.00;;;2.53;100.00
7170;BME280;3626;42.656;23.312;2022-12-08T00:31:18;94424.91;;;2.53;100.00
7170;BME280;3626;42.656;23.312;2022-12-08T00:31:24;94435.09;;;2.53;100.00
7170;BME280;3626;42.656;23.312;2022-12-08T00:31:30;94425.72;;;2.53;100.00
7170;BME280;3626;42.656;23.312;2022-12-08T00:31:35;94430.81;;;2.53;100.00
7170;BME280;3626;42.656;23.312;2022-12-08T00:31:41;94431.63;;;2.54;100.00
7170;BME280;3626;42.656;23.312;2022-12-08T00:31:48;94430.00;;;2.53;100.00
7170;BME280;3626;42.656;23.312;2022-12-08T00:31:54;94430.00;;;2.53;100.00
7170;BME280;3626;42.656;23.312;2022-12-08T00:32:00;94433.34;;;2.53;100.00
7170;BME280;3626;42.656;23.312;2022-12-08T00:32:06;94423.16;;;2.53;100.00
7170;BME280;3626;42.656;23.312;2022-12-08T00:32:11;94434.16;;;2.54;100.00
7170;BME280;3626;42.656;23.312;2022-12-08T00:32:17;94425.72;;;2.53;100.00
7170;BME280;3626;42.656;23.312;2022-12-08T00:32:23;94430.94;;;2.52;100.00
7170;BME280;3626;42.656;23.312;2022-12-08T00:32:29;94430.00;;;2.53;100.00
7170;BME280;3626;42.656;23.312;2022-12-08T00:32:35;94425.84;;;2.52;100.00
7170;BME280;3626;42.656;23.312;2022-12-08T00:32:42;94430.94;;;2.52;100.00
7170;BME280;3626;42.656;23.312;2022-12-08T00:32:47;94430.00;;;2.53;100.00
7170;BME280;3626;42.656;23.312;2022-12-08T00:32:53;94432.56;;;2.53;100.00
7170;BME280;3626;42.656;23.312;2022-12-08T00:32:59;94432.56;;;2.53;100.00
7170;BME280;3626;42.656;23.312;2022-12-08T00:33:04;94430.00;;;2.53;100.00
7170;BME280;3626;42.656;23.312;2022-12-08T00:33:11;94434.16;;;2.54;100.00
7170;BME280;3626;42.656;23.312;2022-12-08T00:33:17;94426.53;;;2.54;100.00
7170;BME280;3626;42.656;23.312;2022-12-08T00:33:23;94430.00;;;2.53;100.00
7170;BME280;3626;42.656;23.312;2022-12-08T00:33:29;94431.63;;;2.54;100.00
7170;BME280;3626;42.656;23.312;2022-12-08T00:33:34;94433.34;;;2.53;100.00
7170;BME280;3626;42.656;23.312;2022-12-08T00:33:40;94429.19;;;2.52;100.00
7170;BME280;3626;42.656;23.312;2022-12-08T00:33:46;94435.09;;;2.53;100.00
7170;BME280;3626;42.656;23.312;2022-12-08T00:33:51;94430.94;;;2.52;100.00
7170;BME280;3626;42.656;23.312;2022-12-08T00:33:57;94427.69;;;2.49;100.00
7170;BME280;3626;42.656;23.312;2022-12-08T00:34:04;94436.41;;;2.47;100.00
7170;BME280;3626;42.656;23.312;2022-12-08T00:34:10;94434.91;;;2.44;100.00
7170;BME280;3626;42.656;23.312;2022-12-08T00:34:16;94436.50;;;2.45;100.00
7170;BME280;3626;42.656;23.312;2022-12-08T00:34:23;94428.88;;;2.45;100.00
7170;BME280;3626;42.656;23.312;2022-12-08T00:34:29;94431.41;;;2.45;100.00
7170;BME280;3626;42.656;23.312;2022-12-08T00:34:35;94433.06;;;2.46;100.00
7170;BME280;3626;42.656;23.312;2022-12-08T00:34:41;94436.50;;;2.45;100.00
7170;BME280;3626;42.656;23.312;2022-12-08T00:34:47;94433.16;;;2.45;100.00
7170;BME280;3626;42.656;23.312;2022-12-08T00:34:53;94436.50;;;2.45;100.00
7170;BME280;3626;42.656;23.312;2022-12-08T00:34:58;94436.63;;;2.44;100.00
7170;BME280;3626;42.656;23.312;2022-12-08T00:35:04;94440.00;;;2.44;100.00
7170;BME280;3626;42.656;23.312;2022-12-08T00:35:10;94435.69;;;2.45;100.00
7170;BME280;3626;42.656;23.312;2022-12-08T00:35:16;94422.16;;;2.44;100.00
7170;BME280;3626;42.656;23.312;2022-12-08T00:35:22;94433.16;;;2.45;100.00
7170;BME280;3626;42.656;23.312;2022-12-08T00:35:27;94432.34;;;2.44;100.00
7170;BME280;3626;42.656;23.312;2022-12-08T00:35:33;94433.28;;;2.43;100.00
7170;BME280;3626;42.656;23.312;2022-12-08T00:35:39;94442.78;;;2.41;100.00
7170;BME280;3626;42.656;23.312;2022-12-08T00:35:45;94432.59;;;2.41;100.00
7170;BME280;3626;42.656;23.312;2022-12-08T00:35:51;94435.94;;;2.42;100.00
7170;BME280;3626;42.656;23.312;2022-12-08T00:35:57;94432.47;;;2.43;100.00
7170;BME280;3626;42.656;23.312;2022-12-08T00:36:07;94435.84;;;2.43;100.00
7170;BME280;3626;42.656;23.312;2022-12-08T00:36:13;94437.44;;;2.44;100.00
7170;BME280;3626;42.656;23.312;2022-12-08T00:36:19;94433.16;;;2.45;100.00
7170;BME280;3626;42.656;23.312;2022-12-08T00:36:25;94428.06;;;2.45;100.00
7170;BME280;3626;42.656;23.312;2022-12-08T00:36:31;94434.75;;;2.46;100.00
7170;BME280;3626;42.656;23.312;2022-12-08T00:36:37;94434.75;;;2.46;100.00
7170;BME280;3626;42.656;23.312;2022-12-08T00:36:43;94430.59;;;2.45;100.00
7170;BME280;3626;42.656;23.312;2022-12-08T00:36:49;94438.47;;;2.42;100.00